sensor_id;sensor_type;location;lat;lon;timestamp;P1;durP1;ratioP1;P2;durP2;ratioP2
24455;SDS011;12628;50.860;5.714;2022-12-18T00:01:30;40.58;;;19.30;;
24455;SDS011;12628;50.860;5.714;2022-12-18T00:03:58;43.33;;;18.02;;
24455;SDS011;12628;50.860;5.714;2022-12-18T00:06:26;44.35;;;19.65;;
24455;SDS011;12628;50.860;5.714;2022-12-18T00:08:57;43.75;;;19.58;;
24455;SDS011;12628;50.860;5.714;2022-12-18T00:11:26;42.40;;;19.00;;
24455;SDS011;12628;50.860;5.714;2022-12-18T00:13:55;48.63;;;19.30;;
24455;SDS011;12628;50.860;5.714;2022-12-18T00:16:25;43.45;;;19.50;;
24455;SDS011;12628;50.860;5.714;2022-12-18T00:18:53;41.28;;;19.45;;
24455;SDS011;12628;50.860;5.714;2022-12-18T00:21:25;42.30;;;19.10;;
24455;SDS011;12628;50.860;5.714;2022-12-18T00:23:53;40.00;;;18.27;;
24455;SDS011;12628;50.860;5.714;2022-12-18T00:26:22;39.83;;;18.90;;
24455;SDS011;12628;50.860;5.714;2022-12-18T00:31:19;40.85;;;16.67;;
24455;SDS011;12628;50.860;5.714;2022-12-18T00:33:47;36.05;;;16.63;;
24455;SDS011;12628;50.860;5.714;2022-12-18T00:36:16;38.65;;;18.38;;
24455;SDS011;12628;50.860;5.714;2022-12-18T00:38:45;43.67;;;18.33;;
24455;SDS011;12628;50.860;5.714;2022-12-18T00:41:14;45.08;;;18.58;;
24455;SDS011;12628;50.860;5.714;2022-12-18T00:44:04;43.55;;;18.60;;
24455;SDS011;12628;50.860;5.714;2022-12-18T00:46:31;43.92;;;18.67;;
24455;SDS011;12628;50.860;5.714;2022-12-18T00:48:58;40.90;;;17.60;;
24455;SDS011;12628;50.860;5.714;2022-12-18T00:51:26;38.13;;;17.33;;
24455;SDS011;12628;50.860;5.714;2022-12-18T00:53:53;40.90;;;18.58;;
24455;SDS011;12628;50.860;5.714;2022-12-18T00:56:20;43.75;;;19.35;;
24455;SDS011;12628;50.860;5.714;2022-12-18T00:58:50;40.20;;;17.80;;
24455;SDS011;12628;50.860;5.714;2022-12-18T01:01:19;43.45;;;18.98;;
24455;SDS011;12628;50.860;5.714;2022-12-18T01:03:46;45.70;;;16.50;;
24455;SDS011;12628;50.860;5.714;2022-12-18T01:06:14;43.50;;;17.20;;
24455;SDS011;12628;50.860;5.714;2022-12-18T01:08:41;38.70;;;14.90;;
24455;SDS011;12628;50.860;5.714;2022-12-18T01:11:09;41.53;;;17.08;;
24455;SDS011;12628;50.860;5.714;2022-12-18T01:13:38;35.42;;;16.50;;
24455;SDS011;12628;50.860;5.714;2022-12-18T01:16:06;37.08;;;16.85;;
24455;SDS011;12628;50.860;5.714;2022-12-18T01:18:35;33.85;;;14.48;;
24455;SDS011;12628;50.860;5.714;2022-12-18T01:21:05;33.75;;;14.48;;
24455;SDS011;12628;50.860;5.714;2022-12-18T01:23:33;34.25;;;14.57;;
24455;SDS011;12628;50.860;5.714;2022-12-18T01:26:04;36.70;;;15.32;;
24455;SDS011;12628;50.860;5.714;2022-12-18T01:28:32;35.75;;;14.95;;
24455;SDS011;12628;50.860;5.714;2022-12-18T01:31:08;35.65;;;14.15;;
24455;SDS011;12628;50.860;5.714;2022-12-18T01:33:38;33.55;;;15.40;;
24455;SDS011;12628;50.860;5.714;2022-12-18T01:36:06;29.90;;;14.07;;
24455;SDS011;12628;50.860;5.714;2022-12-18T01:38:33;36.60;;;14.50;;
24455;SDS011;12628;50.860;5.714;2022-12-18T01:41:01;32.30;;;14.52;;
24455;SDS011;12628;50.860;5.714;2022-12-18T01:46:16;36.40;;;14.65;;
24455;SDS011;12628;50.860;5.714;2022-12-18T01:48:46;36.63;;;15.48;;
24455;SDS011;12628;50.860;5.714;2022-12-18T01:51:16;33.33;;;13.95;;
24455;SDS011;12628;50.860;5.714;2022-12-18T01:53:43;32.70;;;15.68;;
24455;SDS011;12628;50.860;5.714;2022-12-18T01:56:12;33.42;;;14.00;;
24455;SDS011;12628;50.860;5.714;2022-12-18T01:58:45;30.20;;;12.40;;
24455;SDS011;12628;50.860;5.714;2022-12-18T02:01:17;30.40;;;13.48;;
24455;SDS011;12628;50.860;5.714;2022-12-18T02:03:46;30.65;;;13.27;;
24455;SDS011;12628;50.860;5.714;2022-12-18T02:06:15;32.13;;;14.45;;
24455;SDS011;12628;50.860;5.714;2022-12-18T02:08:49;28.17;;;12.75;;
24455;SDS011;12628;50.860;5.714;2022-12-18T02:11:28;29.80;;;13.38;;
24455;SDS011;12628;50.860;5.714;2022-12-18T02:14:08;24.80;;;12.45;;
24455;SDS011;12628;50.860;5.714;2022-12-18T02:16:43;30.23;;;13.25;;
24455;SDS011;12628;50.860;5.714;2022-12-18T02:19:20;27.65;;;12.70;;
24455;SDS011;12628;50.860;5.714;2022-12-18T02:22:07;29.27;;;13.00;;
24455;SDS011;12628;50.860;5.714;2022-12-18T02:24:50;26.05;;;12.35;;
24455;SDS011;12628;50.860;5.714;2022-12-18T02:27:28;27.17;;;11.40;;
24455;SDS011;12628;50.860;5.714;2022-12-18T02:29:57;22.25;;;10.82;;
24455;SDS011;12628;50.860;5.714;2022-12-18T02:32:28;25.52;;;11.98;;
24455;SDS011;12628;50.860;5.714;2022-12-18T02:35:00;24.38;;;11.98;;
24455;SDS011;12628;50.860;5.714;2022-12-18T02:39:58;29.50;;;13.68;;
24455;SDS011;12628;50.860;5.714;2022-12-18T02:42:28;31.98;;;15.25;;
24455;SDS011;12628;50.860;5.714;2022-12-18T02:44:55;34.13;;;15.13;;
24455;SDS011;12628;50.860;5.714;2022-12-18T02:47:24;36.33;;;16.38;;
24455;SDS011;12628;50.860;5.714;2022-12-18T02:50:05;40.17;;;17.08;;
24455;SDS011;12628;50.860;5.714;2022-12-18T02:52:41;39.80;;;17.30;;
24455;SDS011;12628;50.860;5.714;2022-12-18T02:55:19;34.05;;;16.85;;
24455;SDS011;12628;50.860;5.714;2022-12-18T02:57:56;36.65;;;16.92;;
24455;SDS011;12628;50.860;5.714;2022-12-18T03:00:30;34.65;;;15.77;;
24455;SDS011;12628;50.860;5.714;2022-12-18T03:03:05;37.20;;;17.05;;
24455;SDS011;12628;50.860;5.714;2022-12-18T03:05:36;37.08;;;16.80;;
24455;SDS011;12628;50.860;5.714;2022-12-18T03:08:10;36.90;;;17.50;;
24455;SDS011;12628;50.860;5.714;2022-12-18T03:10:42;35.67;;;15.98;;
24455;SDS011;12628;50.860;5.714;2022-12-18T03:13:16;40.00;;;16.95;;
24455;SDS011;12628;50.860;5.714;2022-12-18T03:15:47;35.13;;;16.05;;
24455;SDS011;12628;50.860;5.714;2022-12-18T03:18:17;29.77;;;13.85;;
24455;SDS011;12628;50.860;5.714;2022-12-18T03:20:47;32.55;;;14.88;;
24455;SDS011;12628;50.860;5.714;2022-12-18T03:23:21;29.88;;;13.80;;
24455;SDS011;12628;50.860;5.714;2022-12-18T03:25:52;32.38;;;15.60;;
24455;SDS011;12628;50.860;5.714;2022-12-18T03:28:25;34.30;;;15.02;;
24455;SDS011;12628;50.860;5.714;2022-12-18T03:30:57;33.65;;;15.40;;
24455;SDS011;12628;50.860;5.714;2022-12-18T03:33:27;32.95;;;16.10;;
24455;SDS011;12628;50.860;5.714;2022-12-18T03:35:58;33.67;;;15.35;;
24455;SDS011;12628;50.860;5.714;2022-12-18T03:38:25;35.83;;;16.27;;
24455;SDS011;12628;50.860;5.714;2022-12-18T03:40:53;32.88;;;15.48;;
24455;SDS011;12628;50.860;5.714;2022-12-18T03:43:33;36.25;;;15.75;;
24455;SDS011;12628;50.860;5.714;2022-12-18T03:46:05;37.42;;;15.93;;
24455;SDS011;12628;50.860;5.714;2022-12-18T03:48:37;38.40;;;16.85;;
24455;SDS011;12628;50.860;5.714;2022-12-18T03:51:09;32.88;;;15.32;;
24455;SDS011;12628;50.860;5.714;2022-12-18T03:53:41;32.25;;;15.27;;
24455;SDS011;12628;50.860;5.714;2022-12-18T03:56:14;35.17;;;16.25;;
24455;SDS011;12628;50.860;5.714;2022-12-18T03:58:44;30.67;;;14.15;;
24455;SDS011;12628;50.860;5.714;2022-12-18T04:01:14;30.05;;;14.40;;
24455;SDS011;12628;50.860;5.714;2022-12-18T04:03:44;32.63;;;13.82;;
24455;SDS011;12628;50.860;5.714;2022-12-18T04:06:15;27.92;;;12.85;;
24455;SDS011;12628;50.860;5.714;2022-12-18T04:08:44;30.55;;;13.70;;
24455;SDS011;12628;50.860;5.714;2022-12-18T04:11:12;30.02;;;12.75;;
24455;SDS011;12628;50.860;5.714;2022-12-18T04:13:39;26.55;;;11.85;;
24455;SDS011;12628;50.860;5.714;2022-12-18T04:16:09;28.38;;;12.98;;
24455;SDS011;12628;50.860;5.714;2022-12-18T04:18:36;26.30;;;12.75;;
24455;SDS011;12628;50.860;5.714;2022-12-18T04:21:04;33.50;;;15.18;;
24455;SDS011;12628;50.860;5.714;2022-12-18T04:23:31;29.02;;;13.40;;
24455;SDS011;12628;50.860;5.714;2022-12-18T04:25:58;34.97;;;14.10;;
24455;SDS011;12628;50.860;5.714;2022-12-18T04:28:25;31.58;;;14.38;;
24455;SDS011;12628;50.860;5.714;2022-12-18T04:30:52;26.35;;;10.90;;
24455;SDS011;12628;50.860;5.714;2022-12-18T04:33:21;35.53;;;16.00;;
24455;SDS011;12628;50.860;5.714;2022-12-18T04:35:48;36.30;;;17.50;;
24455;SDS011;12628;50.860;5.714;2022-12-18T04:38:15;41.88;;;17.15;;
24455;SDS011;12628;50.860;5.714;2022-12-18T04:40:42;41.05;;;18.50;;
24455;SDS011;12628;50.860;5.714;2022-12-18T04:43:10;49.50;;;19.88;;
24455;SDS011;12628;50.860;5.714;2022-12-18T04:45:37;43.58;;;19.60;;
24455;SDS011;12628;50.860;5.714;2022-12-18T04:48:04;47.13;;;19.83;;
24455;SDS011;12628;50.860;5.714;2022-12-18T04:50:33;44.20;;;18.88;;
24455;SDS011;12628;50.860;5.714;2022-12-18T04:53:00;39.55;;;18.27;;
24455;SDS011;12628;50.860;5.714;2022-12-18T04:55:27;42.15;;;19.20;;
24455;SDS011;12628;50.860;5.714;2022-12-18T04:57:55;44.38;;;19.08;;
24455;SDS011;12628;50.860;5.714;2022-12-18T05:00:22;40.88;;;18.50;;
24455;SDS011;12628;50.860;5.714;2022-12-18T05:02:49;40.90;;;17.98;;
24455;SDS011;12628;50.860;5.714;2022-12-18T05:05:16;41.70;;;18.52;;
24455;SDS011;12628;50.860;5.714;2022-12-18T05:07:45;43.22;;;18.95;;
24455;SDS011;12628;50.860;5.714;2022-12-18T05:10:12;39.78;;;17.90;;
24455;SDS011;12628;50.860;5.714;2022-12-18T05:12:39;39.33;;;16.05;;
24455;SDS011;12628;50.860;5.714;2022-12-18T05:15:20;30.38;;;14.77;;
24455;SDS011;12628;50.860;5.714;2022-12-18T05:17:47;37.25;;;17.38;;
24455;SDS011;12628;50.860;5.714;2022-12-18T05:20:15;34.40;;;14.98;;
24455;SDS011;12628;50.860;5.714;2022-12-18T05:22:44;35.22;;;16.02;;
24455;SDS011;12628;50.860;5.714;2022-12-18T05:25:11;31.33;;;14.25;;
24455;SDS011;12628;50.860;5.714;2022-12-18T05:27:39;33.72;;;14.68;;
24455;SDS011;12628;50.860;5.714;2022-12-18T05:30:06;33.70;;;15.50;;
24455;SDS011;12628;50.860;5.714;2022-12-18T05:32:35;33.13;;;15.35;;
24455;SDS011;12628;50.860;5.714;2022-12-18T05:35:02;37.78;;;16.55;;
24455;SDS011;12628;50.860;5.714;2022-12-18T05:37:30;30.80;;;14.38;;
24455;SDS011;12628;50.860;5.714;2022-12-18T05:39:59;33.47;;;14.75;;
24455;SDS011;12628;50.860;5.714;2022-12-18T05:42:26;37.40;;;15.57;;
24455;SDS011;12628;50.860;5.714;2022-12-18T05:44:53;31.15;;;14.77;;
24455;SDS011;12628;50.860;5.714;2022-12-18T05:47:20;35.33;;;14.73;;
24455;SDS011;12628;50.860;5.714;2022-12-18T05:49:47;27.70;;;14.27;;
24455;SDS011;12628;50.860;5.714;2022-12-18T05:52:15;33.70;;;13.88;;
24455;SDS011;12628;50.860;5.714;2022-12-18T05:54:42;33.63;;;13.68;;
24455;SDS011;12628;50.860;5.714;2022-12-18T05:57:10;33.25;;;15.63;;
24455;SDS011;12628;50.860;5.714;2022-12-18T05:59:38;32.97;;;14.43;;
24455;SDS011;12628;50.860;5.714;2022-12-18T06:02:05;32.05;;;15.00;;
24455;SDS011;12628;50.860;5.714;2022-12-18T06:04:32;35.30;;;14.52;;
24455;SDS011;12628;50.860;5.714;2022-12-18T06:07:00;27.45;;;13.68;;
24455;SDS011;12628;50.860;5.714;2022-12-18T06:09:30;32.38;;;14.32;;
24455;SDS011;12628;50.860;5.714;2022-12-18T06:11:57;31.65;;;13.15;;
24455;SDS011;12628;50.860;5.714;2022-12-18T06:14:26;30.13;;;13.38;;
24455;SDS011;12628;50.860;5.714;2022-12-18T06:16:53;31.05;;;12.27;;
24455;SDS011;12628;50.860;5.714;2022-12-18T06:19:20;26.83;;;12.85;;
24455;SDS011;12628;50.860;5.714;2022-12-18T06:21:48;24.90;;;11.30;;
24455;SDS011;12628;50.860;5.714;2022-12-18T06:24:15;24.42;;;10.18;;
24455;SDS011;12628;50.860;5.714;2022-12-18T06:26:42;26.42;;;11.57;;
24455;SDS011;12628;50.860;5.714;2022-12-18T06:29:09;24.88;;;10.98;;
24455;SDS011;12628;50.860;5.714;2022-12-18T06:31:38;26.70;;;11.40;;
24455;SDS011;12628;50.860;5.714;2022-12-18T06:34:05;25.65;;;11.73;;
24455;SDS011;12628;50.860;5.714;2022-12-18T06:36:32;24.85;;;11.50;;
24455;SDS011;12628;50.860;5.714;2022-12-18T06:39:00;24.33;;;10.77;;
24455;SDS011;12628;50.860;5.714;2022-12-18T06:41:28;22.27;;;10.73;;
24455;SDS011;12628;50.860;5.714;2022-12-18T06:43:55;23.33;;;10.32;;
24455;SDS011;12628;50.860;5.714;2022-12-18T06:46:23;22.92;;;10.73;;
24455;SDS011;12628;50.860;5.714;2022-12-18T06:48:52;22.40;;;9.45;;
24455;SDS011;12628;50.860;5.714;2022-12-18T06:51:19;19.65;;;9.25;;
24455;SDS011;12628;50.860;5.714;2022-12-18T06:53:47;21.08;;;9.75;;
24455;SDS011;12628;50.860;5.714;2022-12-18T06:56:15;20.30;;;9.40;;
24455;SDS011;12628;50.860;5.714;2022-12-18T06:58:42;24.90;;;14.32;;
24455;SDS011;12628;50.860;5.714;2022-12-18T07:01:10;21.50;;;10.13;;
24455;SDS011;12628;50.860;5.714;2022-12-18T07:03:39;19.92;;;9.70;;
24455;SDS011;12628;50.860;5.714;2022-12-18T07:06:13;16.88;;;7.97;;
24455;SDS011;12628;50.860;5.714;2022-12-18T07:08:42;15.75;;;7.00;;
24455;SDS011;12628;50.860;5.714;2022-12-18T07:11:09;17.95;;;8.10;;
24455;SDS011;12628;50.860;5.714;2022-12-18T07:13:36;16.88;;;7.43;;
24455;SDS011;12628;50.860;5.714;2022-12-18T07:16:05;16.25;;;8.23;;
24455;SDS011;12628;50.860;5.714;2022-12-18T07:18:33;15.85;;;7.50;;
24455;SDS011;12628;50.860;5.714;2022-12-18T07:21:02;16.45;;;6.88;;
24455;SDS011;12628;50.860;5.714;2022-12-18T07:23:33;20.92;;;9.27;;
24455;SDS011;12628;50.860;5.714;2022-12-18T07:26:01;19.95;;;8.45;;
24455;SDS011;12628;50.860;5.714;2022-12-18T07:28:29;16.63;;;8.45;;
24455;SDS011;12628;50.860;5.714;2022-12-18T07:30:57;17.05;;;8.10;;
24455;SDS011;12628;50.860;5.714;2022-12-18T07:33:25;18.48;;;8.63;;
24455;SDS011;12628;50.860;5.714;2022-12-18T07:35:52;16.30;;;7.88;;
24455;SDS011;12628;50.860;5.714;2022-12-18T07:38:19;17.58;;;8.20;;
24455;SDS011;12628;50.860;5.714;2022-12-18T07:40:48;17.23;;;8.43;;
24455;SDS011;12628;50.860;5.714;2022-12-18T07:43:15;20.30;;;8.00;;
24455;SDS011;12628;50.860;5.714;2022-12-18T07:45:42;16.80;;;7.25;;
24455;SDS011;12628;50.860;5.714;2022-12-18T07:48:10;14.38;;;7.35;;
24455;SDS011;12628;50.860;5.714;2022-12-18T07:50:37;16.45;;;7.47;;
24455;SDS011;12628;50.860;5.714;2022-12-18T07:53:04;15.35;;;7.30;;
24455;SDS011;12628;50.860;5.714;2022-12-18T07:55:32;16.33;;;7.82;;
24455;SDS011;12628;50.860;5.714;2022-12-18T07:58:02;15.82;;;6.93;;
24455;SDS011;12628;50.860;5.714;2022-12-18T08:02:56;15.95;;;7.43;;
24455;SDS011;12628;50.860;5.714;2022-12-18T08:05:24;14.95;;;7.10;;
24455;SDS011;12628;50.860;5.714;2022-12-18T08:07:51;15.48;;;7.50;;
24455;SDS011;12628;50.860;5.714;2022-12-18T08:10:18;16.67;;;7.20;;
24455;SDS011;12628;50.860;5.714;2022-12-18T08:12:48;16.33;;;7.75;;
24455;SDS011;12628;50.860;5.714;2022-12-18T08:15:17;17.17;;;7.20;;
24455;SDS011;12628;50.860;5.714;2022-12-18T08:17:44;16.25;;;7.03;;
24455;SDS011;12628;50.860;5.714;2022-12-18T08:20:12;14.88;;;7.40;;
24455;SDS011;12628;50.860;5.714;2022-12-18T08:22:40;17.55;;;8.52;;
24455;SDS011;12628;50.860;5.714;2022-12-18T08:25:07;18.75;;;8.00;;
24455;SDS011;12628;50.860;5.714;2022-12-18T08:27:35;15.93;;;7.93;;
24455;SDS011;12628;50.860;5.714;2022-12-18T08:30:02;16.05;;;8.13;;
24455;SDS011;12628;50.860;5.714;2022-12-18T08:32:31;14.43;;;7.47;;
24455;SDS011;12628;50.860;5.714;2022-12-18T08:34:59;17.30;;;8.25;;
24455;SDS011;12628;50.860;5.714;2022-12-18T08:37:26;18.75;;;8.93;;
24455;SDS011;12628;50.860;5.714;2022-12-18T08:39:53;15.57;;;7.80;;
24455;SDS011;12628;50.860;5.714;2022-12-18T08:42:20;17.05;;;7.85;;
24455;SDS011;12628;50.860;5.714;2022-12-18T08:45:05;19.08;;;7.95;;
24455;SDS011;12628;50.860;5.714;2022-12-18T08:47:35;13.52;;;6.82;;
24455;SDS011;12628;50.860;5.714;2022-12-18T08:50:03;16.30;;;8.20;;
24455;SDS011;12628;50.860;5.714;2022-12-18T08:52:31;13.45;;;7.10;;
24455;SDS011;12628;50.860;5.714;2022-12-18T08:54:58;12.75;;;6.97;;
24455;SDS011;12628;50.860;5.714;2022-12-18T08:57:26;16.05;;;6.65;;
24455;SDS011;12628;50.860;5.714;2022-12-18T08:59:53;17.65;;;8.15;;
24455;SDS011;12628;50.860;5.714;2022-12-18T09:02:20;13.25;;;6.55;;
24455;SDS011;12628;50.860;5.714;2022-12-18T09:04:49;12.60;;;6.30;;
24455;SDS011;12628;50.860;5.714;2022-12-18T09:07:16;14.27;;;6.78;;
24455;SDS011;12628;50.860;5.714;2022-12-18T09:09:43;12.38;;;6.72;;
24455;SDS011;12628;50.860;5.714;2022-12-18T09:12:11;13.68;;;6.72;;
24455;SDS011;12628;50.860;5.714;2022-12-18T09:14:38;15.25;;;7.50;;
24455;SDS011;12628;50.860;5.714;2022-12-18T09:17:05;14.07;;;7.78;;
24455;SDS011;12628;50.860;5.714;2022-12-18T09:19:32;14.75;;;7.55;;
24455;SDS011;12628;50.860;5.714;2022-12-18T09:22:01;14.02;;;6.97;;
24455;SDS011;12628;50.860;5.714;2022-12-18T09:24:28;17.67;;;9.05;;
24455;SDS011;12628;50.860;5.714;2022-12-18T09:26:55;17.08;;;8.73;;
24455;SDS011;12628;50.860;5.714;2022-12-18T09:29:23;18.00;;;8.80;;
24455;SDS011;12628;50.860;5.714;2022-12-18T09:31:50;15.93;;;8.13;;
24455;SDS011;12628;50.860;5.714;2022-12-18T09:34:17;17.15;;;8.30;;
24455;SDS011;12628;50.860;5.714;2022-12-18T09:36:46;16.08;;;8.00;;
24455;SDS011;12628;50.860;5.714;2022-12-18T09:39:14;14.23;;;7.78;;
24455;SDS011;12628;50.860;5.714;2022-12-18T09:41:43;17.02;;;8.50;;
24455;SDS011;12628;50.860;5.714;2022-12-18T09:44:15;17.83;;;8.95;;
24455;SDS011;12628;50.860;5.714;2022-12-18T09:46:47;15.13;;;7.78;;
24455;SDS011;12628;50.860;5.714;2022-12-18T09:49:19;16.60;;;8.23;;
24455;SDS011;12628;50.860;5.714;2022-12-18T09:51:51;16.85;;;8.02;;
24455;SDS011;12628;50.860;5.714;2022-12-18T09:54:24;15.63;;;7.90;;
24455;SDS011;12628;50.860;5.714;2022-12-18T09:56:56;18.45;;;8.18;;
24455;SDS011;12628;50.860;5.714;2022-12-18T09:59:24;14.95;;;8.00;;
24455;SDS011;12628;50.860;5.714;2022-12-18T10:01:56;14.15;;;7.28;;
24455;SDS011;12628;50.860;5.714;2022-12-18T10:04:23;13.18;;;7.40;;
24455;SDS011;12628;50.860;5.714;2022-12-18T10:06:53;14.88;;;6.95;;
24455;SDS011;12628;50.860;5.714;2022-12-18T10:09:30;14.45;;;7.78;;
24455;SDS011;12628;50.860;5.714;2022-12-18T10:12:05;13.80;;;7.68;;
24455;SDS011;12628;50.860;5.714;2022-12-18T10:14:36;18.58;;;8.95;;
24455;SDS011;12628;50.860;5.714;2022-12-18T10:17:14;16.77;;;8.60;;
24455;SDS011;12628;50.860;5.714;2022-12-18T10:19:51;15.52;;;8.05;;
24455;SDS011;12628;50.860;5.714;2022-12-18T10:22:26;16.90;;;7.65;;
24455;SDS011;12628;50.860;5.714;2022-12-18T10:25:05;15.93;;;8.03;;
24455;SDS011;12628;50.860;5.714;2022-12-18T10:27:43;14.20;;;7.22;;
24455;SDS011;12628;50.860;5.714;2022-12-18T10:30:12;13.93;;;7.70;;
24455;SDS011;12628;50.860;5.714;2022-12-18T10:32:41;13.75;;;6.85;;
24455;SDS011;12628;50.860;5.714;2022-12-18T10:35:09;15.57;;;8.05;;
24455;SDS011;12628;50.860;5.714;2022-12-18T10:40:36;14.90;;;8.07;;
24455;SDS011;12628;50.860;5.714;2022-12-18T10:43:19;14.65;;;8.50;;
24455;SDS011;12628;50.860;5.714;2022-12-18T10:48:48;15.38;;;7.70;;
24455;SDS011;12628;50.860;5.714;2022-12-18T10:51:20;18.45;;;8.95;;
24455;SDS011;12628;50.860;5.714;2022-12-18T10:53:55;19.30;;;9.57;;
24455;SDS011;12628;50.860;5.714;2022-12-18T10:56:26;19.35;;;9.70;;
24455;SDS011;12628;50.860;5.714;2022-12-18T10:58:55;20.08;;;8.85;;
24455;SDS011;12628;50.860;5.714;2022-12-18T11:01:24;15.05;;;8.27;;
24455;SDS011;12628;50.860;5.714;2022-12-18T11:03:59;17.17;;;8.98;;
24455;SDS011;12628;50.860;5.714;2022-12-18T11:06:28;17.65;;;8.70;;
24455;SDS011;12628;50.860;5.714;2022-12-18T11:08:59;17.48;;;8.38;;
24455;SDS011;12628;50.860;5.714;2022-12-18T11:11:29;16.20;;;8.45;;
24455;SDS011;12628;50.860;5.714;2022-12-18T11:16:28;17.98;;;8.85;;
24455;SDS011;12628;50.860;5.714;2022-12-18T11:19:17;15.80;;;8.05;;
24455;SDS011;12628;50.860;5.714;2022-12-18T11:21:49;16.48;;;8.95;;
24455;SDS011;12628;50.860;5.714;2022-12-18T11:24:19;17.75;;;8.63;;
24455;SDS011;12628;50.860;5.714;2022-12-18T11:26:52;17.23;;;8.48;;
24455;SDS011;12628;50.860;5.714;2022-12-18T11:29:23;18.10;;;8.85;;
24455;SDS011;12628;50.860;5.714;2022-12-18T11:31:59;19.63;;;9.10;;
24455;SDS011;12628;50.860;5.714;2022-12-18T11:35:03;19.20;;;9.27;;
24455;SDS011;12628;50.860;5.714;2022-12-18T11:37:39;18.98;;;9.70;;
24455;SDS011;12628;50.860;5.714;2022-12-18T11:40:10;18.60;;;9.70;;
24455;SDS011;12628;50.860;5.714;2022-12-18T11:42:45;17.52;;;9.07;;
24455;SDS011;12628;50.860;5.714;2022-12-18T11:45:22;18.50;;;9.45;;
24455;SDS011;12628;50.860;5.714;2022-12-18T11:47:57;18.90;;;9.65;;
24455;SDS011;12628;50.860;5.714;2022-12-18T11:50:29;19.25;;;10.20;;
24455;SDS011;12628;50.860;5.714;2022-12-18T11:53:04;22.08;;;10.68;;
24455;SDS011;12628;50.860;5.714;2022-12-18T11:55:37;19.45;;;9.70;;
24455;SDS011;12628;50.860;5.714;2022-12-18T11:58:12;20.08;;;10.43;;
24455;SDS011;12628;50.860;5.714;2022-12-18T12:00:46;20.35;;;10.52;;
24455;SDS011;12628;50.860;5.714;2022-12-18T12:03:21;20.52;;;10.32;;
24455;SDS011;12628;50.860;5.714;2022-12-18T12:06:03;18.23;;;9.52;;
24455;SDS011;12628;50.860;5.714;2022-12-18T12:08:45;19.38;;;10.35;;
24455;SDS011;12628;50.860;5.714;2022-12-18T12:11:26;21.55;;;10.02;;
24455;SDS011;12628;50.860;5.714;2022-12-18T12:14:08;16.17;;;8.77;;
24455;SDS011;12628;50.860;5.714;2022-12-18T12:16:55;20.70;;;10.18;;
24455;SDS011;12628;50.860;5.714;2022-12-18T12:19:30;20.98;;;10.38;;
24455;SDS011;12628;50.860;5.714;2022-12-18T12:22:07;19.90;;;10.73;;
24455;SDS011;12628;50.860;5.714;2022-12-18T12:24:44;18.80;;;9.80;;
24455;SDS011;12628;50.860;5.714;2022-12-18T12:27:23;20.25;;;10.93;;
24455;SDS011;12628;50.860;5.714;2022-12-18T12:30:00;21.50;;;11.40;;
24455;SDS011;12628;50.860;5.714;2022-12-18T12:32:35;20.65;;;11.00;;
24455;SDS011;12628;50.860;5.714;2022-12-18T12:35:20;20.23;;;11.02;;
24455;SDS011;12628;50.860;5.714;2022-12-18T12:38:04;20.10;;;10.80;;
24455;SDS011;12628;50.860;5.714;2022-12-18T12:40:37;22.98;;;11.15;;
24455;SDS011;12628;50.860;5.714;2022-12-18T12:43:11;22.88;;;11.10;;
24455;SDS011;12628;50.860;5.714;2022-12-18T12:45:48;20.23;;;10.75;;
24455;SDS011;12628;50.860;5.714;2022-12-18T12:48:23;20.10;;;10.70;;
24455;SDS011;12628;50.860;5.714;2022-12-18T12:50:58;19.90;;;10.52;;
24455;SDS011;12628;50.860;5.714;2022-12-18T12:53:30;19.63;;;10.60;;
24455;SDS011;12628;50.860;5.714;2022-12-18T12:56:02;19.50;;;10.43;;
24455;SDS011;12628;50.860;5.714;2022-12-18T12:58:32;18.88;;;10.10;;
24455;SDS011;12628;50.860;5.714;2022-12-18T13:01:09;19.20;;;10.15;;
24455;SDS011;12628;50.860;5.714;2022-12-18T13:03:44;18.50;;;10.10;;
24455;SDS011;12628;50.860;5.714;2022-12-18T13:06:23;20.15;;;10.15;;
24455;SDS011;12628;50.860;5.714;2022-12-18T13:08:58;22.27;;;10.55;;
24455;SDS011;12628;50.860;5.714;2022-12-18T13:11:30;19.85;;;10.05;;
24455;SDS011;12628;50.860;5.714;2022-12-18T13:14:20;19.83;;;9.77;;
24455;SDS011;12628;50.860;5.714;2022-12-18T13:20:03;18.63;;;9.60;;
24455;SDS011;12628;50.860;5.714;2022-12-18T13:22:34;18.58;;;10.18;;
24455;SDS011;12628;50.860;5.714;2022-12-18T13:25:04;20.80;;;9.80;;
24455;SDS011;12628;50.860;5.714;2022-12-18T13:27:59;19.33;;;10.00;;
24455;SDS011;12628;50.860;5.714;2022-12-18T13:30:41;20.10;;;10.43;;
24455;SDS011;12628;50.860;5.714;2022-12-18T13:36:25;20.13;;;10.35;;
24455;SDS011;12628;50.860;5.714;2022-12-18T13:45:40;19.65;;;10.77;;
24455;SDS011;12628;50.860;5.714;2022-12-18T13:50:59;20.58;;;10.57;;
24455;SDS011;12628;50.860;5.714;2022-12-18T13:53:32;22.02;;;11.68;;
24455;SDS011;12628;50.860;5.714;2022-12-18T13:56:02;21.38;;;11.15;;
24455;SDS011;12628;50.860;5.714;2022-12-18T13:58:30;21.27;;;10.95;;
24455;SDS011;12628;50.860;5.714;2022-12-18T14:00:58;20.45;;;10.95;;
24455;SDS011;12628;50.860;5.714;2022-12-18T14:03:27;20.60;;;11.55;;
24455;SDS011;12628;50.860;5.714;2022-12-18T14:06:00;21.88;;;12.25;;
24455;SDS011;12628;50.860;5.714;2022-12-18T14:08:37;23.88;;;12.77;;
24455;SDS011;12628;50.860;5.714;2022-12-18T14:11:06;22.98;;;12.70;;
24455;SDS011;12628;50.860;5.714;2022-12-18T14:13:44;25.27;;;12.88;;
24455;SDS011;12628;50.860;5.714;2022-12-18T14:16:14;26.08;;;13.82;;
24455;SDS011;12628;50.860;5.714;2022-12-18T14:18:44;25.42;;;13.77;;
24455;SDS011;12628;50.860;5.714;2022-12-18T14:21:22;27.40;;;14.03;;
24455;SDS011;12628;50.860;5.714;2022-12-18T14:26:41;22.85;;;12.90;;
24455;SDS011;12628;50.860;5.714;2022-12-18T14:29:20;23.08;;;13.00;;
24455;SDS011;12628;50.860;5.714;2022-12-18T14:32:05;28.48;;;14.02;;
24455;SDS011;12628;50.860;5.714;2022-12-18T14:34:33;25.58;;;13.75;;
24455;SDS011;12628;50.860;5.714;2022-12-18T14:37:00;26.45;;;14.18;;
24455;SDS011;12628;50.860;5.714;2022-12-18T14:39:29;26.98;;;14.57;;
24455;SDS011;12628;50.860;5.714;2022-12-18T14:41:57;24.00;;;14.32;;
24455;SDS011;12628;50.860;5.714;2022-12-18T14:44:24;26.98;;;14.93;;
24455;SDS011;12628;50.860;5.714;2022-12-18T14:46:51;27.10;;;14.48;;
24455;SDS011;12628;50.860;5.714;2022-12-18T14:49:19;27.48;;;14.85;;
24455;SDS011;12628;50.860;5.714;2022-12-18T14:51:50;27.45;;;15.20;;
24455;SDS011;12628;50.860;5.714;2022-12-18T14:54:19;26.17;;;13.98;;
24455;SDS011;12628;50.860;5.714;2022-12-18T14:56:50;30.40;;;14.43;;
24455;SDS011;12628;50.860;5.714;2022-12-18T14:59:21;26.48;;;14.57;;
24455;SDS011;12628;50.860;5.714;2022-12-18T15:01:54;27.70;;;14.88;;
24455;SDS011;12628;50.860;5.714;2022-12-18T15:04:26;29.00;;;15.57;;
24455;SDS011;12628;50.860;5.714;2022-12-18T15:07:04;26.95;;;14.90;;
24455;SDS011;12628;50.860;5.714;2022-12-18T15:09:39;29.60;;;14.93;;
24455;SDS011;12628;50.860;5.714;2022-12-18T15:12:19;29.33;;;16.05;;
